sensor_id;sensor_type;location;lat;lon;timestamp;P1;durP1;ratioP1;P2;durP2;ratioP2
16320;SDS011;8269;50.990;4.494;2022-10-16T00:01:15;4.70;;;1.90;;
16320;SDS011;8269;50.990;4.494;2022-10-16T00:03:42;4.37;;;1.60;;
16320;SDS011;8269;50.990;4.494;2022-10-16T00:06:09;3.33;;;1.70;;
16320;SDS011;8269;50.990;4.494;2022-10-16T00:08:36;2.73;;;1.60;;
16320;SDS011;8269;50.990;4.494;2022-10-16T00:11:03;5.40;;;1.90;;
16320;SDS011;8269;50.990;4.494;2022-10-16T00:13:34;4.70;;;1.70;;
16320;SDS011;8269;50.990;4.494;2022-10-16T00:16:02;2.27;;;1.40;;
16320;SDS011;8269;50.990;4.494;2022-10-16T00:18:28;4.30;;;1.50;;
16320;SDS011;8269;50.990;4.494;2022-10-16T00:20:54;3.17;;;1.50;;
16320;SDS011;8269;50.990;4.494;2022-10-16T00:23:20;2.77;;;1.47;;
16320;SDS011;8269;50.990;4.494;2022-10-16T00:25:56;3.20;;;1.67;;
16320;SDS011;8269;50.990;4.494;2022-10-16T00:28:24;3.80;;;1.40;;
16320;SDS011;8269;50.990;4.494;2022-10-16T00:30:49;4.17;;;1.30;;
16320;SDS011;8269;50.990;4.494;2022-10-16T00:33:15;2.93;;;1.50;;
16320;SDS011;8269;50.990;4.494;2022-10-16T00:35:41;4.13;;;1.33;;
16320;SDS011;8269;50.990;4.494;2022-10-16T00:38:06;2.50;;;1.30;;
16320;SDS011;8269;50.990;4.494;2022-10-16T00:40:32;2.43;;;1.10;;
16320;SDS011;8269;50.990;4.494;2022-10-16T00:42:57;2.60;;;1.30;;
16320;SDS011;8269;50.990;4.494;2022-10-16T00:45:23;3.40;;;1.37;;
16320;SDS011;8269;50.990;4.494;2022-10-16T00:47:49;3.43;;;1.33;;
16320;SDS011;8269;50.990;4.494;2022-10-16T00:50:22;3.20;;;1.33;;
16320;SDS011;8269;50.990;4.494;2022-10-16T00:52:54;3.47;;;1.67;;
16320;SDS011;8269;50.990;4.494;2022-10-16T00:55:22;3.13;;;1.50;;
16320;SDS011;8269;50.990;4.494;2022-10-16T00:57:48;4.77;;;1.50;;
16320;SDS011;8269;50.990;4.494;2022-10-16T01:00:17;3.33;;;1.50;;
16320;SDS011;8269;50.990;4.494;2022-10-16T01:02:51;3.10;;;1.70;;
16320;SDS011;8269;50.990;4.494;2022-10-16T01:05:22;3.33;;;1.70;;
16320;SDS011;8269;50.990;4.494;2022-10-16T01:13:10;3.63;;;1.60;;
16320;SDS011;8269;50.990;4.494;2022-10-16T01:15:37;3.47;;;1.50;;
16320;SDS011;8269;50.990;4.494;2022-10-16T01:18:21;3.00;;;1.73;;
16320;SDS011;8269;50.990;4.494;2022-10-16T01:21:10;3.93;;;1.77;;
16320;SDS011;8269;50.990;4.494;2022-10-16T01:23:48;3.87;;;1.97;;
16320;SDS011;8269;50.990;4.494;2022-10-16T01:26:45;3.23;;;2.07;;
16320;SDS011;8269;50.990;4.494;2022-10-16T01:32:35;4.20;;;2.07;;
16320;SDS011;8269;50.990;4.494;2022-10-16T01:35:21;3.97;;;2.10;;
16320;SDS011;8269;50.990;4.494;2022-10-16T01:38:02;4.20;;;1.90;;
16320;SDS011;8269;50.990;4.494;2022-10-16T01:40:32;4.10;;;1.90;;
16320;SDS011;8269;50.990;4.494;2022-10-16T01:43:17;4.57;;;2.43;;
16320;SDS011;8269;50.990;4.494;2022-10-16T01:45:47;3.53;;;1.97;;
16320;SDS011;8269;50.990;4.494;2022-10-16T01:48:13;3.30;;;2.10;;
16320;SDS011;8269;50.990;4.494;2022-10-16T01:50:43;4.30;;;2.07;;
16320;SDS011;8269;50.990;4.494;2022-10-16T01:53:15;6.07;;;2.00;;
16320;SDS011;8269;50.990;4.494;2022-10-16T01:55:43;5.90;;;2.30;;
16320;SDS011;8269;50.990;4.494;2022-10-16T01:58:12;4.53;;;2.33;;
16320;SDS011;8269;50.990;4.494;2022-10-16T02:00:39;4.40;;;2.10;;
16320;SDS011;8269;50.990;4.494;2022-10-16T02:03:08;3.77;;;2.20;;
16320;SDS011;8269;50.990;4.494;2022-10-16T02:05:46;5.00;;;2.13;;
16320;SDS011;8269;50.990;4.494;2022-10-16T02:08:22;4.87;;;2.37;;
16320;SDS011;8269;50.990;4.494;2022-10-16T02:10:50;5.10;;;2.30;;
16320;SDS011;8269;50.990;4.494;2022-10-16T02:13:17;5.77;;;2.50;;
16320;SDS011;8269;50.990;4.494;2022-10-16T02:15:47;4.90;;;2.37;;
16320;SDS011;8269;50.990;4.494;2022-10-16T02:18:13;4.63;;;2.17;;
16320;SDS011;8269;50.990;4.494;2022-10-16T02:20:48;5.53;;;2.20;;
16320;SDS011;8269;50.990;4.494;2022-10-16T02:23:19;3.10;;;2.00;;
16320;SDS011;8269;50.990;4.494;2022-10-16T02:26:04;3.17;;;2.00;;
16320;SDS011;8269;50.990;4.494;2022-10-16T02:28:42;3.87;;;1.80;;
16320;SDS011;8269;50.990;4.494;2022-10-16T02:31:12;4.17;;;1.90;;
16320;SDS011;8269;50.990;4.494;2022-10-16T02:33:46;3.20;;;1.80;;
16320;SDS011;8269;50.990;4.494;2022-10-16T02:36:12;3.70;;;1.93;;
16320;SDS011;8269;50.990;4.494;2022-10-16T02:38:38;10.23;;;2.53;;
16320;SDS011;8269;50.990;4.494;2022-10-16T02:41:05;3.23;;;1.90;;
16320;SDS011;8269;50.990;4.494;2022-10-16T02:43:31;4.17;;;2.00;;
16320;SDS011;8269;50.990;4.494;2022-10-16T02:45:58;4.53;;;1.90;;
16320;SDS011;8269;50.990;4.494;2022-10-16T02:48:24;4.87;;;1.80;;
16320;SDS011;8269;50.990;4.494;2022-10-16T02:50:50;4.33;;;1.80;;
16320;SDS011;8269;50.990;4.494;2022-10-16T02:53:16;3.73;;;2.00;;
16320;SDS011;8269;50.990;4.494;2022-10-16T02:55:41;3.77;;;2.10;;
16320;SDS011;8269;50.990;4.494;2022-10-16T02:58:07;5.57;;;1.70;;
16320;SDS011;8269;50.990;4.494;2022-10-16T03:00:32;6.93;;;1.90;;
16320;SDS011;8269;50.990;4.494;2022-10-16T03:02:58;3.77;;;1.73;;
16320;SDS011;8269;50.990;4.494;2022-10-16T03:05:24;3.57;;;2.03;;
16320;SDS011;8269;50.990;4.494;2022-10-16T03:07:49;5.37;;;2.23;;
16320;SDS011;8269;50.990;4.494;2022-10-16T03:10:15;5.30;;;1.87;;
16320;SDS011;8269;50.990;4.494;2022-10-16T03:12:40;3.60;;;1.77;;
16320;SDS011;8269;50.990;4.494;2022-10-16T03:15:06;5.10;;;2.20;;
16320;SDS011;8269;50.990;4.494;2022-10-16T03:17:32;4.27;;;2.00;;
16320;SDS011;8269;50.990;4.494;2022-10-16T03:19:58;4.70;;;2.17;;
16320;SDS011;8269;50.990;4.494;2022-10-16T03:22:24;6.93;;;2.20;;
16320;SDS011;8269;50.990;4.494;2022-10-16T03:24:49;4.40;;;2.23;;
16320;SDS011;8269;50.990;4.494;2022-10-16T03:27:15;3.50;;;1.83;;
16320;SDS011;8269;50.990;4.494;2022-10-16T03:29:40;5.63;;;2.13;;
16320;SDS011;8269;50.990;4.494;2022-10-16T03:32:06;3.13;;;1.97;;
16320;SDS011;8269;50.990;4.494;2022-10-16T03:34:32;5.13;;;2.20;;
16320;SDS011;8269;50.990;4.494;2022-10-16T03:36:57;7.93;;;2.20;;
16320;SDS011;8269;50.990;4.494;2022-10-16T03:39:23;4.67;;;2.03;;
16320;SDS011;8269;50.990;4.494;2022-10-16T03:41:48;4.80;;;2.07;;
16320;SDS011;8269;50.990;4.494;2022-10-16T03:44:14;4.97;;;2.03;;
16320;SDS011;8269;50.990;4.494;2022-10-16T03:46:39;4.47;;;2.40;;
16320;SDS011;8269;50.990;4.494;2022-10-16T03:49:05;4.90;;;2.00;;
16320;SDS011;8269;50.990;4.494;2022-10-16T03:51:31;4.30;;;2.27;;
16320;SDS011;8269;50.990;4.494;2022-10-16T03:53:56;4.47;;;1.93;;
16320;SDS011;8269;50.990;4.494;2022-10-16T03:56:22;3.33;;;1.93;;
16320;SDS011;8269;50.990;4.494;2022-10-16T03:58:48;3.73;;;1.90;;
16320;SDS011;8269;50.990;4.494;2022-10-16T04:01:13;4.37;;;2.17;;
16320;SDS011;8269;50.990;4.494;2022-10-16T04:03:39;5.40;;;2.10;;
16320;SDS011;8269;50.990;4.494;2022-10-16T04:06:04;6.67;;;2.10;;
16320;SDS011;8269;50.990;4.494;2022-10-16T04:08:30;5.43;;;2.20;;
16320;SDS011;8269;50.990;4.494;2022-10-16T04:10:59;3.63;;;1.90;;
16320;SDS011;8269;50.990;4.494;2022-10-16T04:13:24;4.27;;;2.00;;
16320;SDS011;8269;50.990;4.494;2022-10-16T04:15:50;5.07;;;2.20;;
16320;SDS011;8269;50.990;4.494;2022-10-16T04:18:15;4.10;;;2.10;;
16320;SDS011;8269;50.990;4.494;2022-10-16T04:20:41;9.40;;;2.50;;
16320;SDS011;8269;50.990;4.494;2022-10-16T04:23:07;8.37;;;2.50;;
16320;SDS011;8269;50.990;4.494;2022-10-16T04:25:32;6.33;;;2.50;;
16320;SDS011;8269;50.990;4.494;2022-10-16T04:27:58;6.40;;;2.40;;
16320;SDS011;8269;50.990;4.494;2022-10-16T04:30:24;4.60;;;2.50;;
16320;SDS011;8269;50.990;4.494;2022-10-16T04:32:50;7.20;;;2.30;;
16320;SDS011;8269;50.990;4.494;2022-10-16T04:35:17;7.10;;;2.40;;
16320;SDS011;8269;50.990;4.494;2022-10-16T04:37:43;5.50;;;2.10;;
16320;SDS011;8269;50.990;4.494;2022-10-16T04:40:09;6.87;;;1.97;;
16320;SDS011;8269;50.990;4.494;2022-10-16T04:42:35;7.40;;;2.50;;
16320;SDS011;8269;50.990;4.494;2022-10-16T04:45:01;7.03;;;2.30;;
16320;SDS011;8269;50.990;4.494;2022-10-16T04:47:27;5.17;;;2.23;;
16320;SDS011;8269;50.990;4.494;2022-10-16T04:49:52;6.13;;;2.30;;
16320;SDS011;8269;50.990;4.494;2022-10-16T04:52:18;5.90;;;2.40;;
16320;SDS011;8269;50.990;4.494;2022-10-16T04:54:44;4.40;;;2.70;;
16320;SDS011;8269;50.990;4.494;2022-10-16T04:57:10;7.20;;;2.37;;
16320;SDS011;8269;50.990;4.494;2022-10-16T04:59:36;5.60;;;2.37;;
16320;SDS011;8269;50.990;4.494;2022-10-16T05:02:02;5.20;;;2.53;;
16320;SDS011;8269;50.990;4.494;2022-10-16T05:04:27;4.97;;;2.53;;
16320;SDS011;8269;50.990;4.494;2022-10-16T05:06:53;5.13;;;2.43;;
16320;SDS011;8269;50.990;4.494;2022-10-16T05:09:18;7.13;;;2.60;;
16320;SDS011;8269;50.990;4.494;2022-10-16T05:11:44;5.67;;;2.50;;
16320;SDS011;8269;50.990;4.494;2022-10-16T05:14:10;7.03;;;2.30;;
16320;SDS011;8269;50.990;4.494;2022-10-16T05:16:35;4.90;;;2.47;;
16320;SDS011;8269;50.990;4.494;2022-10-16T05:19:01;6.03;;;2.67;;
16320;SDS011;8269;50.990;4.494;2022-10-16T05:21:26;5.17;;;2.90;;
16320;SDS011;8269;50.990;4.494;2022-10-16T05:23:52;7.47;;;3.03;;
16320;SDS011;8269;50.990;4.494;2022-10-16T05:26:19;4.57;;;2.53;;
16320;SDS011;8269;50.990;4.494;2022-10-16T05:28:45;7.93;;;2.97;;
16320;SDS011;8269;50.990;4.494;2022-10-16T05:31:10;8.37;;;2.83;;
16320;SDS011;8269;50.990;4.494;2022-10-16T05:33:36;7.30;;;2.77;;
16320;SDS011;8269;50.990;4.494;2022-10-16T05:36:05;8.23;;;3.37;;
16320;SDS011;8269;50.990;4.494;2022-10-16T05:38:32;9.07;;;3.07;;
16320;SDS011;8269;50.990;4.494;2022-10-16T05:40:59;8.83;;;2.70;;
16320;SDS011;8269;50.990;4.494;2022-10-16T05:43:26;5.10;;;2.67;;
16320;SDS011;8269;50.990;4.494;2022-10-16T05:48:22;5.30;;;2.73;;
16320;SDS011;8269;50.990;4.494;2022-10-16T05:50:48;5.67;;;2.67;;
16320;SDS011;8269;50.990;4.494;2022-10-16T05:53:25;7.03;;;3.00;;
16320;SDS011;8269;50.990;4.494;2022-10-16T05:55:52;6.30;;;3.03;;
16320;SDS011;8269;50.990;4.494;2022-10-16T05:58:18;7.40;;;3.17;;
16320;SDS011;8269;50.990;4.494;2022-10-16T06:00:44;7.47;;;3.33;;
16320;SDS011;8269;50.990;4.494;2022-10-16T06:03:09;8.07;;;2.77;;
16320;SDS011;8269;50.990;4.494;2022-10-16T06:05:35;5.53;;;3.00;;
16320;SDS011;8269;50.990;4.494;2022-10-16T06:08:01;8.90;;;3.23;;
16320;SDS011;8269;50.990;4.494;2022-10-16T06:10:26;7.43;;;3.10;;
16320;SDS011;8269;50.990;4.494;2022-10-16T06:12:53;5.33;;;3.07;;
16320;SDS011;8269;50.990;4.494;2022-10-16T06:15:19;11.17;;;3.30;;
16320;SDS011;8269;50.990;4.494;2022-10-16T06:17:45;7.17;;;3.00;;
16320;SDS011;8269;50.990;4.494;2022-10-16T06:20:11;6.63;;;2.80;;
16320;SDS011;8269;50.990;4.494;2022-10-16T06:22:37;7.03;;;2.90;;
16320;SDS011;8269;50.990;4.494;2022-10-16T06:25:02;7.47;;;3.03;;
16320;SDS011;8269;50.990;4.494;2022-10-16T06:27:28;6.30;;;3.07;;
16320;SDS011;8269;50.990;4.494;2022-10-16T06:29:53;6.40;;;3.33;;
16320;SDS011;8269;50.990;4.494;2022-10-16T06:32:19;8.63;;;3.37;;
16320;SDS011;8269;50.990;4.494;2022-10-16T06:34:45;6.50;;;3.23;;
16320;SDS011;8269;50.990;4.494;2022-10-16T06:37:11;9.07;;;3.17;;
16320;SDS011;8269;50.990;4.494;2022-10-16T06:39:36;6.63;;;3.37;;
16320;SDS011;8269;50.990;4.494;2022-10-16T06:42:02;6.47;;;2.90;;
16320;SDS011;8269;50.990;4.494;2022-10-16T06:44:27;6.23;;;3.13;;
16320;SDS011;8269;50.990;4.494;2022-10-16T06:46:53;8.93;;;3.10;;
16320;SDS011;8269;50.990;4.494;2022-10-16T06:49:19;6.13;;;3.10;;
16320;SDS011;8269;50.990;4.494;2022-10-16T06:51:47;8.37;;;2.90;;
16320;SDS011;8269;50.990;4.494;2022-10-16T06:54:14;7.73;;;2.80;;
16320;SDS011;8269;50.990;4.494;2022-10-16T06:56:40;6.70;;;3.17;;
16320;SDS011;8269;50.990;4.494;2022-10-16T06:59:05;5.53;;;2.73;;
16320;SDS011;8269;50.990;4.494;2022-10-16T07:01:31;7.13;;;3.05;;
16320;SDS011;8269;50.990;4.494;2022-10-16T07:03:57;7.23;;;2.80;;
16320;SDS011;8269;50.990;4.494;2022-10-16T07:06:24;5.00;;;2.40;;
16320;SDS011;8269;50.990;4.494;2022-10-16T07:08:50;7.53;;;2.80;;
16320;SDS011;8269;50.990;4.494;2022-10-16T07:11:17;4.63;;;2.50;;
16320;SDS011;8269;50.990;4.494;2022-10-16T07:13:44;5.50;;;2.60;;
16320;SDS011;8269;50.990;4.494;2022-10-16T07:16:13;4.93;;;2.30;;
16320;SDS011;8269;50.990;4.494;2022-10-16T07:18:40;6.97;;;2.20;;
16320;SDS011;8269;50.990;4.494;2022-10-16T07:21:11;5.77;;;2.57;;
16320;SDS011;8269;50.990;4.494;2022-10-16T07:23:39;8.23;;;2.87;;
16320;SDS011;8269;50.990;4.494;2022-10-16T07:26:05;4.60;;;2.57;;
16320;SDS011;8269;50.990;4.494;2022-10-16T07:28:31;5.43;;;2.60;;
16320;SDS011;8269;50.990;4.494;2022-10-16T07:31:02;6.60;;;2.60;;
16320;SDS011;8269;50.990;4.494;2022-10-16T07:33:29;6.97;;;2.50;;
16320;SDS011;8269;50.990;4.494;2022-10-16T07:35:55;7.35;;;2.42;;
16320;SDS011;8269;50.990;4.494;2022-10-16T07:38:21;5.22;;;2.33;;
16320;SDS011;8269;50.990;4.494;2022-10-16T07:40:47;5.78;;;2.78;;
16320;SDS011;8269;50.990;4.494;2022-10-16T07:43:13;5.22;;;2.30;;
16320;SDS011;8269;50.990;4.494;2022-10-16T07:45:48;7.35;;;2.40;;
16320;SDS011;8269;50.990;4.494;2022-10-16T07:48:15;7.78;;;2.40;;
16320;SDS011;8269;50.990;4.494;2022-10-16T07:50:42;4.63;;;2.38;;
16320;SDS011;8269;50.990;4.494;2022-10-16T07:53:09;5.82;;;2.22;;
16320;SDS011;8269;50.990;4.494;2022-10-16T07:55:36;6.32;;;2.30;;
16320;SDS011;8269;50.990;4.494;2022-10-16T07:58:02;7.35;;;2.22;;
16320;SDS011;8269;50.990;4.494;2022-10-16T08:00:28;7.57;;;2.40;;
16320;SDS011;8269;50.990;4.494;2022-10-16T08:02:54;4.40;;;2.17;;
16320;SDS011;8269;50.990;4.494;2022-10-16T08:05:21;6.63;;;2.20;;
16320;SDS011;8269;50.990;4.494;2022-10-16T08:07:49;4.03;;;2.08;;
16320;SDS011;8269;50.990;4.494;2022-10-16T08:10:16;4.95;;;2.40;;
16320;SDS011;8269;50.990;4.494;2022-10-16T08:12:43;5.97;;;2.28;;
16320;SDS011;8269;50.990;4.494;2022-10-16T08:15:08;4.47;;;1.95;;
16320;SDS011;8269;50.990;4.494;2022-10-16T08:17:34;7.20;;;2.15;;
16320;SDS011;8269;50.990;4.494;2022-10-16T08:20:00;4.57;;;2.00;;
16320;SDS011;8269;50.990;4.494;2022-10-16T08:22:26;6.40;;;2.10;;
16320;SDS011;8269;50.990;4.494;2022-10-16T08:24:52;4.82;;;1.90;;
16320;SDS011;8269;50.990;4.494;2022-10-16T08:27:18;4.47;;;1.80;;
16320;SDS011;8269;50.990;4.494;2022-10-16T08:29:43;6.13;;;1.90;;
16320;SDS011;8269;50.990;4.494;2022-10-16T08:32:09;5.38;;;1.70;;
16320;SDS011;8269;50.990;4.494;2022-10-16T08:34:34;8.25;;;1.80;;
16320;SDS011;8269;50.990;4.494;2022-10-16T08:37:00;6.25;;;2.15;;
16320;SDS011;8269;50.990;4.494;2022-10-16T08:39:25;7.95;;;2.00;;
16320;SDS011;8269;50.990;4.494;2022-10-16T08:50:28;6.07;;;1.80;;
16320;SDS011;8269;50.990;4.494;2022-10-16T08:52:55;7.07;;;1.98;;
16320;SDS011;8269;50.990;4.494;2022-10-16T08:55:30;7.57;;;2.05;;
16320;SDS011;8269;50.990;4.494;2022-10-16T08:58:36;5.53;;;1.92;;
16320;SDS011;8269;50.990;4.494;2022-10-16T09:01:02;4.78;;;1.90;;
16320;SDS011;8269;50.990;4.494;2022-10-16T09:17:32;6.85;;;2.28;;
16320;SDS011;8269;50.990;4.494;2022-10-16T09:22:44;8.05;;;1.85;;
16320;SDS011;8269;50.990;4.494;2022-10-16T09:25:14;9.82;;;2.28;;
16320;SDS011;8269;50.990;4.494;2022-10-16T09:27:44;7.50;;;2.05;;
16320;SDS011;8269;50.990;4.494;2022-10-16T09:30:13;6.28;;;2.10;;
16320;SDS011;8269;50.990;4.494;2022-10-16T09:32:41;7.85;;;2.10;;
16320;SDS011;8269;50.990;4.494;2022-10-16T09:35:54;7.13;;;2.05;;
16320;SDS011;8269;50.990;4.494;2022-10-16T09:38:00;5.50;;;1.85;;
16320;SDS011;8269;50.990;4.494;2022-10-16T09:40:26;6.85;;;2.13;;
16320;SDS011;8269;50.990;4.494;2022-10-16T09:45:57;5.40;;;1.80;;
16320;SDS011;8269;50.990;4.494;2022-10-16T09:48:25;6.30;;;1.85;;
16320;SDS011;8269;50.990;4.494;2022-10-16T09:50:59;7.07;;;1.92;;
16320;SDS011;8269;50.990;4.494;2022-10-16T09:53:47;5.60;;;1.83;;
16320;SDS011;8269;50.990;4.494;2022-10-16T09:56:20;7.43;;;1.98;;
16320;SDS011;8269;50.990;4.494;2022-10-16T09:58:49;7.68;;;1.92;;
16320;SDS011;8269;50.990;4.494;2022-10-16T10:01:16;8.68;;;1.95;;
16320;SDS011;8269;50.990;4.494;2022-10-16T10:03:43;8.43;;;2.17;;
16320;SDS011;8269;50.990;4.494;2022-10-16T10:08:54;6.15;;;1.73;;
16320;SDS011;8269;50.990;4.494;2022-10-16T10:11:37;6.53;;;1.85;;
16320;SDS011;8269;50.990;4.494;2022-10-16T10:14:03;6.13;;;1.80;;
16320;SDS011;8269;50.990;4.494;2022-10-16T10:16:48;7.65;;;1.65;;
16320;SDS011;8269;50.990;4.494;2022-10-16T10:19:19;5.57;;;1.60;;
16320;SDS011;8269;50.990;4.494;2022-10-16T10:21:49;5.65;;;1.75;;
16320;SDS011;8269;50.990;4.494;2022-10-16T10:24:17;5.90;;;1.90;;
16320;SDS011;8269;50.990;4.494;2022-10-16T10:26:54;6.45;;;1.98;;
16320;SDS011;8269;50.990;4.494;2022-10-16T10:29:31;9.20;;;2.17;;
16320;SDS011;8269;50.990;4.494;2022-10-16T10:46:03;6.30;;;2.20;;
16320;SDS011;8269;50.990;4.494;2022-10-16T10:51:42;5.68;;;1.75;;
16320;SDS011;8269;50.990;4.494;2022-10-16T10:54:29;7.95;;;2.05;;
16320;SDS011;8269;50.990;4.494;2022-10-16T10:57:41;7.95;;;1.88;;
16320;SDS011;8269;50.990;4.494;2022-10-16T11:00:10;7.78;;;2.10;;
16320;SDS011;8269;50.990;4.494;2022-10-16T11:05:28;6.07;;;1.88;;
16320;SDS011;8269;50.990;4.494;2022-10-16T11:08:00;6.25;;;1.60;;
16320;SDS011;8269;50.990;4.494;2022-10-16T11:10:52;6.28;;;1.30;;
16320;SDS011;8269;50.990;4.494;2022-10-16T11:13:30;7.28;;;1.90;;
16320;SDS011;8269;50.990;4.494;2022-10-16T11:16:28;5.93;;;1.80;;
16320;SDS011;8269;50.990;4.494;2022-10-16T11:19:02;5.53;;;1.77;;
16320;SDS011;8269;50.990;4.494;2022-10-16T11:21:37;4.78;;;1.42;;
16320;SDS011;8269;50.990;4.494;2022-10-16T11:24:34;7.25;;;2.38;;
16320;SDS011;8269;50.990;4.494;2022-10-16T11:27:03;8.05;;;1.95;;
16320;SDS011;8269;50.990;4.494;2022-10-16T11:29:33;6.60;;;1.70;;
16320;SDS011;8269;50.990;4.494;2022-10-16T11:32:12;5.38;;;1.65;;
16320;SDS011;8269;50.990;4.494;2022-10-16T11:35:10;6.07;;;1.55;;
16320;SDS011;8269;50.990;4.494;2022-10-16T11:37:48;6.10;;;1.60;;
16320;SDS011;8269;50.990;4.494;2022-10-16T11:40:20;8.63;;;1.98;;
16320;SDS011;8269;50.990;4.494;2022-10-16T11:45:51;8.98;;;2.03;;
16320;SDS011;8269;50.990;4.494;2022-10-16T11:51:25;6.78;;;1.80;;
16320;SDS011;8269;50.990;4.494;2022-10-16T11:54:16;5.65;;;1.63;;
16320;SDS011;8269;50.990;4.494;2022-10-16T11:56:50;7.40;;;1.50;;
16320;SDS011;8269;50.990;4.494;2022-10-16T11:59:28;5.05;;;1.65;;
16320;SDS011;8269;50.990;4.494;2022-10-16T12:05:17;4.75;;;1.48;;
16320;SDS011;8269;50.990;4.494;2022-10-16T12:08:08;6.63;;;1.80;;
16320;SDS011;8269;50.990;4.494;2022-10-16T12:10:36;5.68;;;1.35;;
16320;SDS011;8269;50.990;4.494;2022-10-16T12:13:49;5.03;;;1.55;;
16320;SDS011;8269;50.990;4.494;2022-10-16T12:16:03;3.72;;;1.60;;
16320;SDS011;8269;50.990;4.494;2022-10-16T12:18:48;5.07;;;1.48;;
16320;SDS011;8269;50.990;4.494;2022-10-16T12:21:15;4.43;;;1.30;;
16320;SDS011;8269;50.990;4.494;2022-10-16T12:23:54;6.18;;;1.55;;
16320;SDS011;8269;50.990;4.494;2022-10-16T12:26:27;4.80;;;1.48;;
16320;SDS011;8269;50.990;4.494;2022-10-16T12:29:10;6.75;;;1.73;;
16320;SDS011;8269;50.990;4.494;2022-10-16T12:31:42;5.53;;;1.45;;
16320;SDS011;8269;50.990;4.494;2022-10-16T12:34:24;5.57;;;1.42;;
16320;SDS011;8269;50.990;4.494;2022-10-16T12:37:07;5.30;;;1.55;;
16320;SDS011;8269;50.990;4.494;2022-10-16T12:39:33;4.97;;;1.65;;
16320;SDS011;8269;50.990;4.494;2022-10-16T12:42:03;3.50;;;1.38;;
16320;SDS011;8269;50.990;4.494;2022-10-16T12:44:33;6.57;;;1.58;;
16320;SDS011;8269;50.990;4.494;2022-10-16T12:47:00;4.93;;;1.60;;
16320;SDS011;8269;50.990;4.494;2022-10-16T12:49:37;6.25;;;1.65;;
16320;SDS011;8269;50.990;4.494;2022-10-16T12:52:04;4.60;;;1.40;;
16320;SDS011;8269;50.990;4.494;2022-10-16T12:54:48;4.90;;;1.40;;
16320;SDS011;8269;50.990;4.494;2022-10-16T13:24:47;4.70;;;1.13;;
16320;SDS011;8269;50.990;4.494;2022-10-16T13:29:59;4.38;;;1.27;;
16320;SDS011;8269;50.990;4.494;2022-10-16T13:32:46;7.00;;;1.40;;
16320;SDS011;8269;50.990;4.494;2022-10-16T13:35:25;4.30;;;1.17;;
16320;SDS011;8269;50.990;4.494;2022-10-16T13:38:02;4.57;;;1.25;;
16320;SDS011;8269;50.990;4.494;2022-10-16T13:40:47;3.45;;;1.05;;
16320;SDS011;8269;50.990;4.494;2022-10-16T13:43:18;3.63;;;1.15;;
16320;SDS011;8269;50.990;4.494;2022-10-16T13:45:56;6.43;;;1.50;;
16320;SDS011;8269;50.990;4.494;2022-10-16T13:48:36;4.38;;;1.35;;
16320;SDS011;8269;50.990;4.494;2022-10-16T13:51:02;3.78;;;1.30;;
16320;SDS011;8269;50.990;4.494;2022-10-16T13:53:31;5.18;;;1.40;;
16320;SDS011;8269;50.990;4.494;2022-10-16T13:56:03;3.38;;;1.35;;
16320;SDS011;8269;50.990;4.494;2022-10-16T13:58:30;4.47;;;1.30;;
16320;SDS011;8269;50.990;4.494;2022-10-16T14:00:57;4.47;;;1.13;;
16320;SDS011;8269;50.990;4.494;2022-10-16T14:03:26;8.95;;;1.50;;
16320;SDS011;8269;50.990;4.494;2022-10-16T14:05:57;6.45;;;1.60;;
16320;SDS011;8269;50.990;4.494;2022-10-16T14:08:26;3.92;;;1.50;;
16320;SDS011;8269;50.990;4.494;2022-10-16T14:10:54;5.05;;;1.27;;
16320;SDS011;8269;50.990;4.494;2022-10-16T14:13:43;4.22;;;1.10;;
16320;SDS011;8269;50.990;4.494;2022-10-16T14:16:10;5.75;;;1.40;;
16320;SDS011;8269;50.990;4.494;2022-10-16T14:18:46;6.57;;;1.67;;
16320;SDS011;8269;50.990;4.494;2022-10-16T14:21:21;3.20;;;1.20;;
16320;SDS011;8269;50.990;4.494;2022-10-16T14:23:47;3.60;;;1.40;;
16320;SDS011;8269;50.990;4.494;2022-10-16T14:26:13;6.55;;;1.42;;
16320;SDS011;8269;50.990;4.494;2022-10-16T14:28:42;5.60;;;1.90;;
16320;SDS011;8269;50.990;4.494;2022-10-16T14:34:24;4.13;;;1.17;;
16320;SDS011;8269;50.990;4.494;2022-10-16T14:36:58;4.43;;;1.42;;
16320;SDS011;8269;50.990;4.494;2022-10-16T14:39:32;3.42;;;1.20;;
16320;SDS011;8269;50.990;4.494;2022-10-16T14:41:58;4.10;;;1.50;;
16320;SDS011;8269;50.990;4.494;2022-10-16T14:44:28;5.38;;;1.30;;
16320;SDS011;8269;50.990;4.494;2022-10-16T14:46:57;3.65;;;1.20;;
16320;SDS011;8269;50.990;4.494;2022-10-16T14:49:25;5.05;;;1.50;;
16320;SDS011;8269;50.990;4.494;2022-10-16T14:51:53;4.85;;;1.40;;
16320;SDS011;8269;50.990;4.494;2022-10-16T14:54:18;3.95;;;1.20;;
16320;SDS011;8269;50.990;4.494;2022-10-16T14:59:13;4.60;;;1.40;;
16320;SDS011;8269;50.990;4.494;2022-10-16T15:01:58;5.63;;;1.50;;
16320;SDS011;8269;50.990;4.494;2022-10-16T15:04:44;2.35;;;1.17;;
16320;SDS011;8269;50.990;4.494;2022-10-16T15:07:10;3.58;;;1.25;;
16320;SDS011;8269;50.990;4.494;2022-10-16T15:09:36;3.00;;;1.23;;
16320;SDS011;8269;50.990;4.494;2022-10-16T15:12:01;6.05;;;1.20;;
16320;SDS011;8269;50.990;4.494;2022-10-16T15:14:27;2.85;;;1.17;;
16320;SDS011;8269;50.990;4.494;2022-10-16T15:16:53;5.32;;;1.38;;
16320;SDS011;8269;50.990;4.494;2022-10-16T15:19:18;3.70;;;1.45;;
16320;SDS011;8269;50.990;4.494;2022-10-16T15:21:44;8.32;;;1.40;;
16320;SDS011;8269;50.990;4.494;2022-10-16T15:24:13;9.00;;;1.83;;
16320;SDS011;8269;50.990;4.494;2022-10-16T15:26:39;6.47;;;1.63;;
16320;SDS011;8269;50.990;4.494;2022-10-16T15:29:05;5.85;;;1.60;;
16320;SDS011;8269;50.990;4.494;2022-10-16T15:31:31;4.28;;;1.40;;
16320;SDS011;8269;50.990;4.494;2022-10-16T15:33:56;5.78;;;1.60;;
16320;SDS011;8269;50.990;4.494;2022-10-16T15:36:32;6.97;;;1.88;;
16320;SDS011;8269;50.990;4.494;2022-10-16T15:39:01;4.88;;;1.60;;
16320;SDS011;8269;50.990;4.494;2022-10-16T15:41:30;10.23;;;2.03;;
16320;SDS011;8269;50.990;4.494;2022-10-16T15:43:56;6.32;;;1.42;;
16320;SDS011;8269;50.990;4.494;2022-10-16T15:46:22;6.65;;;2.20;;
16320;SDS011;8269;50.990;4.494;2022-10-16T15:48:49;5.55;;;1.80;;
16320;SDS011;8269;50.990;4.494;2022-10-16T15:51:17;6.53;;;1.73;;
16320;SDS011;8269;50.990;4.494;2022-10-16T15:53:43;5.70;;;1.95;;
16320;SDS011;8269;50.990;4.494;2022-10-16T15:56:11;5.55;;;1.80;;
16320;SDS011;8269;50.990;4.494;2022-10-16T15:58:37;6.30;;;1.80;;
16320;SDS011;8269;50.990;4.494;2022-10-16T16:01:03;6.50;;;2.35;;
16320;SDS011;8269;50.990;4.494;2022-10-16T16:03:30;5.18;;;2.10;;
16320;SDS011;8269;50.990;4.494;2022-10-16T16:05:57;6.07;;;2.08;;
16320;SDS011;8269;50.990;4.494;2022-10-16T16:08:23;5.18;;;1.88;;
16320;SDS011;8269;50.990;4.494;2022-10-16T16:11:02;6.13;;;2.10;;
16320;SDS011;8269;50.990;4.494;2022-10-16T16:13:32;7.60;;;2.38;;
16320;SDS011;8269;50.990;4.494;2022-10-16T16:15:58;6.70;;;2.50;;
16320;SDS011;8269;50.990;4.494;2022-10-16T16:18:24;7.05;;;2.45;;
16320;SDS011;8269;50.990;4.494;2022-10-16T16:20:51;8.15;;;2.55;;
16320;SDS011;8269;50.990;4.494;2022-10-16T16:23:17;9.35;;;2.80;;
16320;SDS011;8269;50.990;4.494;2022-10-16T16:25:44;8.77;;;2.80;;
16320;SDS011;8269;50.990;4.494;2022-10-16T16:28:10;8.90;;;2.55;;
16320;SDS011;8269;50.990;4.494;2022-10-16T16:30:39;6.32;;;2.75;;
16320;SDS011;8269;50.990;4.494;2022-10-16T16:33:06;7.70;;;3.30;;
16320;SDS011;8269;50.990;4.494;2022-10-16T16:35:31;10.70;;;3.17;;
16320;SDS011;8269;50.990;4.494;2022-10-16T16:37:57;5.82;;;2.42;;
16320;SDS011;8269;50.990;4.494;2022-10-16T16:40:22;8.00;;;2.97;;
16320;SDS011;8269;50.990;4.494;2022-10-16T16:42:48;9.82;;;3.22;;
16320;SDS011;8269;50.990;4.494;2022-10-16T16:45:14;8.90;;;2.85;;
16320;SDS011;8269;50.990;4.494;2022-10-16T16:47:40;7.03;;;2.83;;
16320;SDS011;8269;50.990;4.494;2022-10-16T16:50:06;6.50;;;2.22;;
16320;SDS011;8269;50.990;4.494;2022-10-16T16:52:32;7.70;;;2.63;;
16320;SDS011;8269;50.990;4.494;2022-10-16T16:54:59;6.30;;;2.72;;
16320;SDS011;8269;50.990;4.494;2022-10-16T16:57:26;6.35;;;2.83;;
16320;SDS011;8269;50.990;4.494;2022-10-16T16:59:51;6.80;;;2.50;;
16320;SDS011;8269;50.990;4.494;2022-10-16T17:02:17;6.18;;;2.80;;